Dante, South Dakota
Current Conditions -  °F | °C
As of 1:35 PM on Thursday 18 Dec 2014 (Local Time) from KYKN Reporting Station
Overcast Overcast  
Wind Chill: 22°   Ceiling: 1400
Heat Index: 28°   Visibility: 9mi
Dew Point: 21°   Wind: 6mph
Humidity: 74%   Direction: 150°SSE
Pressure: 30.18"   Gusts: NA
Location:  43.04°N, 98.18°W
Report Text: KYKN 181935Z AUTO 15005KT 9SM OVC014 M02/M06 A3018 RMK AO1
Loading
Personal Weather Stations






























Interactive Weather Map New forecast layout! Learn more

10-Day Weather Forecast

Advertisements
Track Severe Weather on mobile